Time;durP1;ratioP1;P1;durP2;ratioP2;P2;SDS_P1;SDS_P2;PMS_P1;PMS_P2;Temp;Humidity;BMP_temperature;BMP_pressure;BME280_temperature;BME280_humidity;BME280_pressure;Samples;Min_cycle;Max_cycle;Signal;HPM_P1;HPM_P2
2023/07/18 00:02:00;;;;;;;6.47;2.95;;;;;;;12.09;100.00;101414.31;6049784;28;20123;-66
2023/07/18 00:04:56;;;;;;;10.87;3.07;;;;;;;12.05;100.00;101424.38;6060605;28;20041;-66
2023/07/18 00:07:51;;;;;;;8.27;2.50;;;;;;;12.21;100.00;101427.34;6049697;28;20038;-66
2023/07/18 00:10:47;;;;;;;7.33;2.80;;;;;;;12.19;100.00;101423.16;6049507;28;20091;-65
2023/07/18 00:13:42;;;;;;;6.90;3.20;;;;;;;12.17;100.00;101420.63;6054730;28;20034;-66
2023/07/18 00:16:37;;;;;;;7.03;3.10;;;;;;;12.03;100.00;101428.16;6049329;28;20374;-66
2023/07/18 00:19:33;;;;;;;9.80;2.90;;;;;;;12.05;100.00;101416.41;6049599;28;20501;-65
2023/07/18 00:22:29;;;;;;;6.78;2.83;;;;;;;12.07;100.00;101410.94;6049552;28;20030;-65
2023/07/18 00:25:24;;;;;;;7.43;3.27;;;;;;;12.13;100.00;101439.66;6048968;28;20040;-65
2023/07/18 00:28:20;;;;;;;9.75;2.90;;;;;;;11.99;100.00;101437.38;6073595;28;20029;-65
2023/07/18 00:31:15;;;;;;;6.70;2.73;;;;;;;12.03;100.00;101415.72;6077856;28;20029;-66
2023/07/18 00:34:11;;;;;;;5.60;2.60;;;;;;;12.01;100.00;101432.78;6072346;28;20030;-65
2023/07/18 00:37:06;;;;;;;11.68;3.40;;;;;;;11.79;100.00;101383.38;6053913;28;20034;-65
2023/07/18 00:40:02;;;;;;;8.60;2.78;;;;;;;12.15;100.00;101427.06;6053625;28;20458;-65
2023/07/18 00:42:58;;;;;;;9.20;3.00;;;;;;;12.37;100.00;101413.47;6053867;28;20481;-65
2023/07/18 00:45:53;;;;;;;8.03;3.20;;;;;;;12.44;100.00;101438.56;6053137;28;20046;-65
2023/07/18 00:48:48;;;;;;;8.60;2.97;;;;;;;12.34;100.00;101435.03;6053384;28;20374;-65
2023/07/18 00:51:44;;;;;;;6.60;2.97;;;;;;;11.95;100.00;101418.22;6053455;28;20026;-65
2023/07/18 00:54:39;;;;;;;6.88;2.60;;;;;;;12.09;100.00;101417.00;6051207;28;20026;-65
2023/07/18 00:57:36;;;;;;;6.88;2.90;;;;;;;12.22;100.00;101417.56;6076464;28;20435;-65
2023/07/18 01:00:32;;;;;;;5.72;2.83;;;;;;;12.44;100.00;101406.63;6075879;28;20029;-65
2023/07/18 01:03:27;;;;;;;9.77;3.00;;;;;;;12.47;100.00;101422.31;6073166;28;20367;-65
2023/07/18 01:06:24;;;;;;;8.00;3.23;;;;;;;12.41;100.00;101412.25;6053382;28;20277;-65
2023/07/18 01:09:20;;;;;;;9.85;3.85;;;;;;;12.71;100.00;101422.72;6052933;28;20071;-65
2023/07/18 01:12:15;;;;;;;10.63;2.90;;;;;;;12.79;100.00;101429.97;6053072;28;20109;-66
2023/07/18 01:15:12;;;;;;;12.70;2.90;;;;;;;12.75;100.00;101432.06;6052621;28;20034;-65
2023/07/18 01:18:09;;;;;;;6.22;2.25;;;;;;;12.63;100.00;101419.09;6052589;28;20392;-66
2023/07/18 01:21:07;;;;;;;5.78;2.60;;;;;;;12.28;100.00;101417.00;6053038;28;20033;-65
2023/07/18 01:24:03;;;;;;;11.43;2.58;;;;;;;12.13;100.00;101419.22;6050756;28;20473;-65
2023/07/18 01:26:58;;;;;;;8.63;3.05;;;;;;;11.90;100.00;101407.19;6052769;28;20022;-65
2023/07/18 01:29:53;;;;;;;8.63;2.57;;;;;;;11.81;100.00;101402.66;6074700;28;20040;-66
2023/07/18 01:32:49;;;;;;;7.70;2.93;;;;;;;11.85;100.00;101406.72;6076233;28;20436;-65
2023/07/18 01:35:45;;;;;;;8.73;2.73;;;;;;;11.79;100.00;101400.16;6054406;28;20038;-65
2023/07/18 01:38:41;;;;;;;7.30;2.42;;;;;;;11.75;100.00;101404.06;6051867;28;20292;-66
2023/07/18 01:41:37;;;;;;;6.38;2.88;;;;;;;11.87;100.00;101400.31;6051872;28;20366;-66
2023/07/18 01:44:33;;;;;;;7.67;2.70;;;;;;;11.91;100.00;101395.53;6053062;28;20026;-65
2023/07/18 01:47:31;;;;;;;10.20;3.25;;;;;;;12.01;100.00;101398.22;6052223;28;20030;-65
2023/07/18 01:50:27;;;;;;;6.50;2.75;;;;;;;11.91;100.00;101384.91;6052261;28;20261;-65
2023/07/18 01:53:22;;;;;;;9.88;2.92;;;;;;;12.00;100.00;101405.38;6051478;28;20408;-65
2023/07/18 01:56:17;;;;;;;8.47;2.80;;;;;;;11.81;100.00;101403.50;6066792;28;20029;-65
2023/07/18 01:59:12;;;;;;;7.70;2.73;;;;;;;11.93;100.00;101391.78;6075751;28;20653;-65
2023/07/18 02:02:08;;;;;;;8.83;3.10;;;;;;;12.46;100.00;101397.53;6076136;28;20461;-65
2023/07/18 02:05:04;;;;;;;5.70;3.13;;;;;;;12.81;100.00;101410.22;6070080;28;20041;-65
2023/07/18 02:07:59;;;;;;;7.47;3.45;;;;;;;12.64;100.00;101408.28;6051647;28;20323;-65
2023/07/18 02:10:54;;;;;;;9.47;3.00;;;;;;;12.72;100.00;101408.41;6052180;28;20025;-65
2023/07/18 02:13:50;;;;;;;11.23;3.17;;;;;;;12.49;100.00;101407.91;6054035;28;20734;-65
2023/07/18 02:16:45;;;;;;;7.37;2.87;;;;;;;12.39;100.00;101401.72;6051697;28;20046;-65
2023/07/18 02:19:40;;;;;;;7.47;3.10;;;;;;;12.80;100.00;101410.38;6051897;28;20029;-65
2023/07/18 02:22:36;;;;;;;11.17;2.97;;;;;;;12.64;100.00;101405.63;6051323;28;20357;-65
2023/07/18 02:25:31;;;;;;;4.90;2.97;;;;;;;12.70;100.00;101394.41;6052917;28;20048;-65
2023/07/18 02:28:26;;;;;;;9.63;3.03;;;;;;;12.54;100.00;101412.78;6061721;28;20056;-65
2023/07/18 02:31:22;;;;;;;10.57;3.10;;;;;;;12.55;100.00;101398.50;6075294;28;20036;-65
2023/07/18 02:34:17;;;;;;;8.13;2.70;;;;;;;12.31;100.00;101411.41;6068695;28;20061;-65
2023/07/18 02:37:12;;;;;;;6.93;2.87;;;;;;;12.18;100.00;101421.44;6050941;28;20381;-65
2023/07/18 02:40:09;;;;;;;6.60;2.80;;;;;;;12.27;100.00;101417.97;6051262;28;20057;-65
2023/07/18 02:43:04;;;;;;;6.47;2.42;;;;;;;11.88;100.00;101428.56;6064949;28;20275;-65
2023/07/18 02:45:59;;;;;;;6.68;3.08;;;;;;;11.85;100.00;101434.13;6074323;28;20017;-65
2023/07/18 02:48:55;;;;;;;9.13;3.03;;;;;;;11.85;100.00;101428.81;6053638;28;20034;-65
2023/07/18 02:51:50;;;;;;;10.02;3.38;;;;;;;11.65;100.00;101423.56;6066099;28;20025;-65
2023/07/18 02:54:45;;;;;;;7.77;2.93;;;;;;;11.54;100.00;101416.56;6064239;28;20033;-65
2023/07/18 02:57:40;;;;;;;6.87;3.00;;;;;;;11.94;100.00;101437.81;6057982;28;20385;-65
2023/07/18 03:00:36;;;;;;;9.57;3.10;;;;;;;11.81;100.00;101419.47;6067741;28;20248;-65
2023/07/18 03:03:32;;;;;;;14.37;3.37;;;;;;;11.82;100.00;101437.06;6073806;28;20027;-65
2023/07/18 03:06:28;;;;;;;12.75;3.60;;;;;;;11.74;100.00;101428.94;6074181;28;20036;-65
2023/07/18 03:09:24;;;;;;;9.02;3.13;;;;;;;11.83;100.00;101443.22;6074284;28;20163;-65
2023/07/18 03:12:21;;;;;;;5.60;3.23;;;;;;;11.60;100.00;101439.94;6074138;28;20029;-65
2023/07/18 03:15:16;;;;;;;11.15;3.28;;;;;;;11.76;100.00;101458.91;6060840;28;20265;-65
2023/07/18 03:18:11;;;;;;;9.10;2.78;;;;;;;11.69;100.00;101472.81;6050352;28;20036;-65
2023/07/18 03:21:07;;;;;;;10.30;3.10;;;;;;;11.50;100.00;101452.31;6049968;28;20088;-65
2023/07/18 03:24:03;;;;;;;10.35;3.42;;;;;;;11.51;100.00;101469.94;6049702;28;20034;-65
2023/07/18 03:26:59;;;;;;;8.70;3.50;;;;;;;11.51;100.00;101463.78;6049951;28;20360;-65
2023/07/18 03:29:54;;;;;;;9.67;3.20;;;;;;;11.68;100.00;101452.53;6070545;28;20048;-65
2023/07/18 03:32:50;;;;;;;8.33;3.00;;;;;;;11.69;100.00;101459.53;6050092;28;20032;-65
2023/07/18 03:35:46;;;;;;;11.85;3.10;;;;;;;11.70;100.00;101443.47;6049131;28;20033;-65
2023/07/18 03:38:41;;;;;;;9.23;3.20;;;;;;;11.74;100.00;101441.41;6049866;28;20038;-65
2023/07/18 03:41:37;;;;;;;10.02;3.33;;;;;;;11.77;100.00;101460.56;6050022;28;20033;-65
2023/07/18 03:44:32;;;;;;;7.67;3.23;;;;;;;11.69;100.00;101459.53;6049409;28;20096;-65
2023/07/18 03:47:28;;;;;;;10.13;2.90;;;;;;;11.66;100.00;101447.34;6049996;28;20097;-65
2023/07/18 03:50:23;;;;;;;8.40;3.25;;;;;;;11.65;100.00;101437.72;6049896;28;20465;-65
2023/07/18 03:53:19;;;;;;;9.48;3.53;;;;;;;11.75;100.00;101454.53;6049370;28;20052;-65
2023/07/18 03:56:15;;;;;;;8.50;3.08;;;;;;;11.77;100.00;101449.09;6049360;28;20063;-65
2023/07/18 03:59:10;;;;;;;10.10;3.05;;;;;;;11.99;100.00;101437.38;6057519;28;20071;-65
2023/07/18 04:02:05;;;;;;;7.43;3.47;;;;;;;12.10;100.00;101446.09;6049651;28;20627;-65
2023/07/18 04:05:01;;;;;;;10.95;3.63;;;;;;;11.93;100.00;101431.63;6053838;28;20113;-65
2023/07/18 04:07:56;;;;;;;11.00;3.05;;;;;;;12.02;100.00;101437.09;6054697;28;20128;-65
2023/07/18 04:10:51;;;;;;;10.97;3.33;;;;;;;12.09;100.00;101440.91;6054282;28;20053;-65
2023/07/18 04:13:47;;;;;;;12.57;3.10;;;;;;;12.40;100.00;101439.81;6053660;28;20029;-65
2023/07/18 04:16:42;;;;;;;10.10;3.17;;;;;;;12.63;100.00;101427.06;6057461;28;20041;-65
2023/07/18 04:19:37;;;;;;;13.63;3.27;;;;;;;12.57;100.00;101436.44;6054374;28;20276;-65
2023/07/18 04:22:33;;;;;;;7.30;3.03;;;;;;;12.54;100.00;101431.41;6054289;28;20034;-65
2023/07/18 04:25:34;;;;;;;7.90;3.10;;;;;;;12.53;100.00;101429.72;6053603;28;20097;-65
2023/07/18 04:28:34;;;;;;;7.72;3.10;;;;;;;12.64;100.00;101440.22;6073016;28;20272;-65
2023/07/18 04:31:30;;;;;;;8.25;3.25;;;;;;;12.65;100.00;101441.91;6054436;28;20076;-65
2023/07/18 04:34:25;;;;;;;6.07;2.70;;;;;;;12.91;100.00;101442.16;6053493;28;20038;-65
2023/07/18 04:37:20;;;;;;;9.53;2.97;;;;;;;12.83;100.00;101440.19;6054062;28;20026;-65
2023/07/18 04:40:16;;;;;;;9.60;2.95;;;;;;;12.73;100.00;101443.84;6053608;28;20046;-65
2023/07/18 04:43:11;;;;;;;11.23;2.70;;;;;;;12.60;100.00;101428.19;6053928;28;20034;-65
2023/07/18 04:46:08;;;;;;;7.65;2.90;;;;;;;12.95;100.00;101440.88;6052938;28;20034;-65
2023/07/18 04:49:04;;;;;;;7.70;2.60;;;;;;;12.96;100.00;101440.72;6053946;28;20029;-65
2023/07/18 04:51:59;;;;;;;6.53;2.80;;;;;;;13.11;100.00;101420.69;6053493;28;20036;-65
2023/07/18 04:54:54;;;;;;;7.60;2.90;;;;;;;13.52;100.00;101421.22;6051433;28;20457;-66
2023/07/18 04:57:50;;;;;;;7.10;2.53;;;;;;;14.29;100.00;101437.59;6055761;28;20465;-65
2023/07/18 05:00:45;;;;;;;7.83;2.53;;;;;;;14.96;100.00;101426.31;6059877;28;20042;-65
2023/07/18 05:03:41;;;;;;;8.00;2.55;;;;;;;14.34;100.00;101423.81;6052842;28;20040;-66
2023/07/18 05:06:36;;;;;;;7.40;2.67;;;;;;;14.41;100.00;101419.53;6053251;28;20378;-66
2023/07/18 05:09:32;;;;;;;5.90;2.83;;;;;;;14.33;100.00;101428.31;6052992;28;20500;-66
2023/07/18 05:12:27;;;;;;;11.10;2.65;;;;;;;14.28;100.00;101422.56;6052937;28;20029;-65
2023/07/18 05:15:23;;;;;;;6.13;2.20;;;;;;;14.90;100.00;101411.75;6049768;28;20500;-65
2023/07/18 05:18:18;;;;;;;8.52;2.55;;;;;;;15.95;95.92;101414.13;6058798;28;20520;-66
2023/07/18 05:21:14;;;;;;;6.90;2.40;;;;;;;16.30;93.05;101421.88;6071995;28;20030;-66
2023/07/18 05:24:10;;;;;;;5.53;2.38;;;;;;;15.81;90.84;101414.75;6069535;28;20286;-66
2023/07/18 05:27:06;;;;;;;8.30;2.63;;;;;;;16.37;91.73;101425.56;6076725;28;20065;-66
2023/07/18 05:30:04;;;;;;;8.88;2.60;;;;;;;15.96;92.40;101427.31;6069115;28;20094;-66
2023/07/18 05:32:59;;;;;;;5.85;2.10;;;;;;;15.59;94.07;101428.69;6067923;28;20025;-66
2023/07/18 05:35:54;;;;;;;7.90;2.40;;;;;;;15.48;95.61;101428.00;6051847;28;20056;-66
2023/07/18 05:38:50;;;;;;;6.23;2.50;;;;;;;15.72;95.69;101437.94;6052584;28;20029;-66
2023/07/18 05:41:45;;;;;;;7.83;2.43;;;;;;;16.08;94.50;101426.03;6052236;28;20045;-65
2023/07/18 05:44:40;;;;;;;8.03;2.57;;;;;;;15.72;93.63;101429.09;6069328;28;20036;-66
2023/07/18 05:47:36;;;;;;;7.10;2.67;;;;;;;15.29;96.53;101438.91;6071347;28;20419;-66
2023/07/18 05:50:32;;;;;;;7.07;3.10;;;;;;;15.11;98.49;101443.44;6058074;28;20017;-66
2023/07/18 05:53:27;;;;;;;8.97;3.43;;;;;;;15.35;98.19;101426.72;6075563;28;20468;-66
2023/07/18 05:56:22;;;;;;;8.40;2.75;;;;;;;15.90;96.92;101449.38;6075781;28;20040;-66
2023/07/18 05:59:18;;;;;;;7.07;2.50;;;;;;;16.08;94.58;101435.88;6058261;28;20028;-66
2023/07/18 06:02:14;;;;;;;8.07;2.50;;;;;;;16.63;90.01;101446.88;6072875;28;20423;-66
2023/07/18 06:05:10;;;;;;;8.13;3.00;;;;;;;16.33;90.44;101436.78;6066889;28;20028;-66
2023/07/18 06:08:07;;;;;;;7.10;2.80;;;;;;;16.73;89.62;101446.69;6052035;28;20049;-66
2023/07/18 06:11:02;;;;;;;7.68;2.97;;;;;;;17.13;86.87;101435.91;6051691;28;20022;-66
2023/07/18 06:13:58;;;;;;;7.33;2.87;;;;;;;17.03;86.43;101437.97;6050974;28;20091;-66
2023/07/18 06:16:53;;;;;;;9.30;2.58;;;;;;;17.73;84.25;101441.63;6051628;28;20542;-66
2023/07/18 06:19:48;;;;;;;7.97;2.80;;;;;;;17.58;82.99;101438.00;6070203;28;20483;-66
2023/07/18 06:22:44;;;;;;;8.50;2.43;;;;;;;17.81;83.18;101429.00;6058319;28;20038;-67
2023/07/18 06:25:39;;;;;;;10.52;2.42;;;;;;;17.89;83.49;101441.53;6050302;28;20292;-66
2023/07/18 06:28:35;;;;;;;6.10;2.70;;;;;;;18.27;81.51;101445.19;6051141;28;20056;-66
2023/07/18 06:31:30;;;;;;;9.07;2.78;;;;;;;18.28;80.21;101446.84;6061447;28;20477;-66
2023/07/18 06:34:25;;;;;;;12.30;2.60;;;;;;;18.29;81.27;101453.91;6074332;28;20040;-66
2023/07/18 06:37:21;;;;;;;7.83;2.47;;;;;;;18.03;81.20;101437.28;6070815;28;20034;-66
2023/07/18 06:40:16;;;;;;;5.60;2.27;;;;;;;18.13;81.92;101438.72;6055895;28;20447;-64
2023/07/18 06:43:12;;;;;;;7.90;2.53;;;;;;;18.24;80.59;101449.06;6050757;28;20152;-67
2023/07/18 06:46:08;;;;;;;7.53;2.30;;;;;;;18.54;80.17;101450.03;6050390;28;20113;-64
2023/07/18 06:49:03;;;;;;;11.02;2.80;;;;;;;18.29;80.70;101443.16;6057688;28;20057;-65
2023/07/18 06:51:59;;;;;;;10.73;2.88;;;;;;;18.62;80.91;101449.13;6074764;28;20250;-65
2023/07/18 06:54:54;;;;;;;14.82;3.20;;;;;;;18.54;79.62;101435.78;6057418;28;20040;-65
2023/07/18 06:57:50;;;;;;;7.38;2.00;;;;;;;18.56;76.61;101429.25;6050542;28;20030;-64
2023/07/18 07:00:46;;;;;;;8.53;2.23;;;;;;;18.81;76.76;101448.66;6050293;28;20025;-65
2023/07/18 07:03:41;;;;;;;8.38;2.50;;;;;;;19.02;75.38;101440.75;6070276;28;21125;-65
2023/07/18 07:06:41;;;;;;;6.97;2.17;;;;;;;19.44;75.33;101440.13;6074329;28;20030;-65
2023/07/18 07:09:36;;;;;;;7.70;2.60;;;;;;;19.23;72.91;101429.25;6070914;28;20034;-65
2023/07/18 07:12:32;;;;;;;9.93;2.30;;;;;;;19.23;74.76;101431.94;6050489;28;20087;-64
2023/07/18 07:15:27;;;;;;;5.40;1.90;;;;;;;19.96;72.89;101408.50;6049978;28;20029;-65
2023/07/18 07:18:23;;;;;;;4.00;1.80;;;;;;;19.94;72.78;101426.72;6057206;28;20354;-65
2023/07/18 07:21:18;;;;;;;6.15;2.35;;;;;;;20.03;69.61;101430.94;6074063;28;20264;-65
2023/07/18 07:24:13;;;;;;;7.77;2.13;;;;;;;19.65;70.67;101432.13;6070727;28;20037;-65
2023/07/18 07:27:09;;;;;;;5.40;1.67;;;;;;;19.58;71.17;101415.94;6050089;28;20072;-65
2023/07/18 07:30:05;;;;;;;5.10;2.30;;;;;;;19.40;70.99;101433.47;6060111;28;20485;-65
2023/07/18 07:33:01;;;;;;;5.28;1.95;;;;;;;19.48;72.25;101425.31;6060452;28;20288;-65
2023/07/18 07:35:56;;;;;;;5.53;2.10;;;;;;;19.56;70.24;101419.81;6073837;28;20033;-65
2023/07/18 07:38:52;;;;;;;7.30;1.67;;;;;;;19.82;68.07;101412.06;6077278;28;20079;-67
2023/07/18 07:41:47;;;;;;;5.13;1.83;;;;;;;19.52;69.92;101423.91;6056182;28;20075;-65
2023/07/18 07:44:45;;;;;;;10.00;1.90;;;;;;;19.66;71.69;101414.97;6060124;28;20033;-65
2023/07/18 07:47:40;;;;;;;6.35;2.13;;;;;;;19.78;70.63;101416.19;6071043;28;20029;-65
2023/07/18 07:50:35;;;;;;;5.37;1.80;;;;;;;19.80;69.30;101414.13;6069373;28;20030;-65
2023/07/18 07:53:31;;;;;;;5.50;1.83;;;;;;;19.92;70.69;101422.56;6072767;28;20284;-66
2023/07/18 07:56:26;;;;;;;4.90;1.50;;;;;;;20.55;68.19;101411.81;6064391;28;20273;-66
2023/07/18 07:59:22;;;;;;;6.23;1.80;;;;;;;20.68;64.90;101414.63;6049354;28;20033;-66
2023/07/18 08:02:19;;;;;;;7.63;1.60;;;;;;;20.36;64.71;101411.63;6058519;28;20022;-66
2023/07/18 08:05:14;;;;;;;4.90;1.92;;;;;;;20.16;64.85;101414.94;6072728;28;20032;-66
2023/07/18 08:08:10;;;;;;;4.70;1.70;;;;;;;20.29;65.80;101397.28;6073245;28;20384;-65
2023/07/18 08:11:05;;;;;;;4.82;1.23;;;;;;;20.13;65.55;101407.25;6073337;28;20030;-65
2023/07/18 08:14:01;;;;;;;5.77;1.63;;;;;;;20.28;65.67;101401.84;6050895;28;20109;-65
2023/07/18 08:16:56;;;;;;;7.50;1.90;;;;;;;20.59;63.87;101398.81;6050124;28;20026;-66
2023/07/18 08:19:51;;;;;;;5.00;1.63;;;;;;;20.69;63.76;101375.03;6068732;28;20029;-66
2023/07/18 08:22:47;;;;;;;4.50;1.23;;;;;;;20.74;62.03;101386.91;6073087;28;20025;-65
2023/07/18 08:25:43;;;;;;;3.28;1.27;;;;;;;20.76;63.22;101392.13;6072645;28;20264;-66
2023/07/18 08:28:38;;;;;;;6.05;1.30;;;;;;;20.94;62.14;101384.34;6059349;28;20038;-66
2023/07/18 08:31:34;;;;;;;7.70;1.60;;;;;;;20.99;62.02;101387.28;6064342;28;20034;-66
2023/07/18 08:34:29;;;;;;;5.53;1.70;;;;;;;20.73;61.03;101368.25;6067839;28;20032;-66
2023/07/18 08:37:24;;;;;;;4.13;1.20;;;;;;;21.08;60.45;101367.25;6072930;28;20175;-65
2023/07/18 08:40:20;;;;;;;5.93;1.80;;;;;;;21.02;61.55;101373.41;6073106;28;20295;-66
2023/07/18 08:43:18;;;;;;;7.45;1.60;;;;;;;21.69;61.06;101389.75;6071946;28;20268;-66
2023/07/18 08:46:14;;;;;;;4.40;1.42;;;;;;;21.48;59.50;101368.28;6056600;28;20483;-66
2023/07/18 08:49:13;;;;;;;5.55;1.70;;;;;;;22.09;57.87;101373.72;6060866;28;20457;-66
2023/07/18 08:52:09;;;;;;;5.32;1.45;;;;;;;21.61;56.87;101379.13;6059475;28;20118;-66
2023/07/18 08:55:05;;;;;;;3.80;1.40;;;;;;;21.85;57.54;101364.28;6053019;28;20405;-66
2023/07/18 08:58:00;;;;;;;4.70;1.55;;;;;;;21.91;57.31;101367.03;6053344;28;20265;-66
2023/07/18 09:00:56;;;;;;;3.42;1.25;;;;;;;22.00;54.35;101367.66;6054150;28;20032;-66
2023/07/18 09:03:51;;;;;;;5.43;1.50;;;;;;;21.91;54.86;101353.50;6052617;28;20030;-66
2023/07/18 09:06:48;;;;;;;5.00;1.35;;;;;;;21.91;54.37;101363.47;6053105;28;20112;-66
2023/07/18 09:09:47;;;;;;;3.53;1.30;;;;;;;21.93;54.31;101358.72;6053264;28;20430;-66
2023/07/18 09:12:42;;;;;;;3.28;1.60;;;;;;;22.27;53.60;101360.44;6052889;28;20087;-66
2023/07/18 09:15:38;;;;;;;3.57;1.30;;;;;;;22.21;54.17;101363.94;6053215;28;20045;-66
2023/07/18 09:18:34;;;;;;;3.88;1.25;;;;;;;22.46;55.76;101368.56;6062096;28;20116;-66
2023/07/18 09:21:31;;;;;;;4.45;1.48;;;;;;;22.15;54.57;101349.38;6076552;28;20025;-66
2023/07/18 09:24:31;;;;;;;4.90;1.45;;;;;;;22.22;53.19;101358.34;6076134;28;20037;-66
2023/07/18 09:27:26;;;;;;;4.82;1.60;;;;;;;22.26;52.58;101354.19;6076370;28;20488;-66
2023/07/18 09:30:32;;;;;;;4.35;1.23;;;;;;;22.72;53.47;101345.28;6076538;28;20029;-66
2023/07/18 09:33:28;;;;;;;6.25;1.48;;;;;;;22.46;50.44;101340.69;6067050;28;20132;-65
2023/07/18 09:36:27;;;;;;;3.78;1.15;;;;;;;22.41;53.42;101349.44;6066883;28;20036;-65
2023/07/18 09:39:23;;;;;;;3.10;1.33;;;;;;;22.51;52.85;101321.97;6076276;28;20372;-65
2023/07/18 09:42:19;;;;;;;2.92;1.20;;;;;;;22.64;51.34;101321.97;6076124;28;20025;-66
2023/07/18 09:45:15;;;;;;;4.45;1.30;;;;;;;22.82;51.78;101324.03;6075724;28;20052;-66
2023/07/18 09:48:11;;;;;;;3.85;0.90;;;;;;;22.98;48.84;101315.47;6067857;28;20033;-66
2023/07/18 09:51:13;;;;;;;3.72;1.42;;;;;;;22.90;50.95;101329.22;6074399;28;20409;-65
2023/07/18 09:54:11;;;;;;;1.73;0.95;;;;;;;22.66;53.73;101303.69;6075323;28;20026;-66
2023/07/18 09:57:10;;;;;;;5.20;1.40;;;;;;;22.79;50.71;101310.94;6076110;28;20057;-66
2023/07/18 10:00:06;;;;;;;5.28;1.50;;;;;;;23.02;49.22;101303.16;6075308;28;20037;-66
2023/07/18 10:03:02;;;;;;;4.47;1.00;;;;;;;23.28;49.34;101316.63;6052197;28;20048;-66
2023/07/18 10:05:58;;;;;;;2.95;1.17;;;;;;;22.87;47.08;101313.41;6051300;28;20401;-66
2023/07/18 10:08:53;;;;;;;3.87;1.20;;;;;;;23.18;49.31;101316.25;6050432;28;20033;-65
2023/07/18 10:11:58;;;;;;;3.85;1.30;;;;;;;23.48;49.72;101309.25;6057067;28;20280;-66
2023/07/18 10:14:56;;;;;;;4.53;1.45;;;;;;;23.19;48.24;101308.94;6067199;28;20032;-65
2023/07/18 10:17:52;;;;;;;4.95;1.90;;;;;;;23.57;47.75;101297.13;6051910;28;20038;-66
2023/07/18 10:21:00;;;;;;;2.90;1.13;;;;;;;23.67;46.61;101293.97;6051688;28;20072;-66
2023/07/18 10:23:56;;;;;;;4.32;1.23;;;;;;;24.28;45.49;101299.59;6050817;28;20037;-66
2023/07/18 10:26:52;;;;;;;3.35;1.00;;;;;;;24.50;45.08;101287.31;6050127;28;20470;-66
2023/07/18 10:30:08;;;;;;;4.22;1.05;;;;;;;24.45;44.31;101276.28;6051068;28;20070;-66
2023/07/18 10:33:03;;;;;;;9.27;1.40;;;;;;;23.92;45.44;101286.69;6051000;28;20057;-65
2023/07/18 10:35:59;;;;;;;2.25;0.90;;;;;;;23.46;46.31;101270.75;6059478;28;20041;-65
2023/07/18 10:38:56;;;;;;;5.13;1.20;;;;;;;23.45;45.82;101271.81;6051237;28;20113;-66
2023/07/18 10:41:51;;;;;;;4.05;1.10;;;;;;;22.78;47.72;101274.09;6051170;28;20076;-66
2023/07/18 10:44:48;;;;;;;4.17;1.30;;;;;;;22.69;47.72;101256.47;6050372;28;20030;-66
2023/07/18 10:47:43;;;;;;;2.53;0.93;;;;;;;23.27;45.57;101268.94;6050761;28;20022;-66
2023/07/18 10:50:39;;;;;;;2.10;0.80;;;;;;;23.46;44.72;101262.63;6050470;28;20044;-66
2023/07/18 10:53:34;;;;;;;2.65;1.00;;;;;;;24.18;44.01;101269.44;6054175;28;20713;-66
2023/07/18 10:56:29;;;;;;;2.03;1.27;;;;;;;24.25;42.37;101256.66;6050510;28;20041;-66
2023/07/18 10:59:25;;;;;;;1.45;0.70;;;;;;;24.25;41.13;101262.06;6050647;28;20065;-66
2023/07/18 11:02:20;;;;;;;2.57;0.90;;;;;;;24.47;41.67;101267.94;6049917;28;20053;-66
2023/07/18 11:05:16;;;;;;;2.67;0.90;;;;;;;24.85;39.63;101258.56;6069587;28;20064;-66
2023/07/18 11:08:21;;;;;;;4.13;1.25;;;;;;;24.98;40.54;101235.03;6061984;28;20033;-66
2023/07/18 11:11:18;;;;;;;3.05;1.58;;;;;;;24.94;42.26;101250.13;6050225;28;20030;-66
2023/07/18 11:14:13;;;;;;;2.47;1.00;;;;;;;24.96;42.40;101232.56;6058403;28;20118;-66
2023/07/18 11:17:18;;;;;;;2.63;1.30;;;;;;;24.79;42.94;101245.91;6050594;28;20029;-66
2023/07/18 11:20:14;;;;;;;3.15;1.20;;;;;;;24.79;41.30;101240.47;6063102;28;20037;-67
2023/07/18 11:23:09;;;;;;;5.90;1.40;;;;;;;25.36;42.06;101244.56;6054862;28;20078;-67
2023/07/18 11:26:22;;;;;;;1.47;0.87;;;;;;;25.44;41.59;101244.22;6054590;28;20369;-67
2023/07/18 11:29:18;;;;;;;3.78;0.77;;;;;;;25.16;41.02;101243.19;6050057;28;20272;-66
2023/07/18 11:32:14;;;;;;;2.03;0.80;;;;;;;25.25;41.71;101225.50;6049779;28;20021;-66
2023/07/18 11:35:11;;;;;;;3.57;1.07;;;;;;;25.78;39.76;101242.72;6061190;28;20460;-67
2023/07/18 11:38:08;;;;;;;2.78;0.80;;;;;;;25.89;38.79;101241.94;6073692;28;20782;-66
2023/07/18 11:41:04;;;;;;;2.25;1.08;;;;;;;26.21;37.62;101228.03;6049312;28;20376;-67
2023/07/18 11:44:01;;;;;;;3.80;0.95;;;;;;;25.70;38.76;101244.94;6049361;28;20037;-67
2023/07/18 11:46:57;;;;;;;3.30;1.15;;;;;;;25.73;37.92;101248.03;6049545;28;20064;-66
2023/07/18 11:49:53;;;;;;;3.47;1.03;;;;;;;25.29;38.79;101246.56;6062587;28;20052;-66
2023/07/18 11:52:49;;;;;;;2.70;1.08;;;;;;;24.79;38.53;101223.38;6073273;28;20280;-66
2023/07/18 11:55:45;;;;;;;4.47;2.10;;;;;;;24.70;39.22;101222.84;6060070;28;20026;-66
2023/07/18 11:58:40;;;;;;;5.63;2.37;;;;;;;24.33;39.85;101231.13;6049720;28;20087;-67
2023/07/18 12:01:36;;;;;;;4.23;1.00;;;;;;;25.16;39.64;101233.16;6058139;28;20044;-67
2023/07/18 12:04:31;;;;;;;2.88;1.05;;;;;;;26.25;38.47;101231.94;6055323;28;20422;-66
2023/07/18 12:07:26;;;;;;;2.80;1.07;;;;;;;26.59;36.08;101228.38;6049573;28;20045;-67
2023/07/18 12:10:22;;;;;;;2.50;1.03;;;;;;;26.07;38.48;101229.28;6053807;28;20092;-67
2023/07/18 12:13:18;;;;;;;3.30;0.93;;;;;;;26.01;36.07;101221.00;6053674;28;20040;-66
2023/07/18 12:16:13;;;;;;;2.65;1.00;;;;;;;25.53;39.87;101217.59;6052181;28;20041;-66
2023/07/18 12:19:09;;;;;;;2.70;1.10;;;;;;;25.79;37.49;101222.63;6062904;28;20354;-67
2023/07/18 12:22:06;;;;;;;4.38;0.90;;;;;;;26.14;37.07;101191.97;6068770;28;20021;-66
2023/07/18 12:25:03;;;;;;;2.90;0.90;;;;;;;25.18;37.97;101203.88;6069803;28;20423;-67
2023/07/18 12:28:00;;;;;;;4.60;1.10;;;;;;;25.24;38.82;101181.25;6078063;28;20032;-66
2023/07/18 12:30:55;;;;;;;2.55;1.10;;;;;;;25.15;38.99;101198.91;6077732;28;20427;-67
2023/07/18 12:33:51;;;;;;;1.27;0.70;;;;;;;24.97;38.19;101181.81;6072312;28;20068;-67
2023/07/18 12:36:47;;;;;;;1.45;0.80;;;;;;;25.43;38.20;101201.03;6077617;28;20026;-67
2023/07/18 12:39:42;;;;;;;3.60;0.88;;;;;;;24.96;39.08;101183.72;6077697;28;20487;-67
2023/07/18 12:42:38;;;;;;;6.30;1.20;;;;;;;25.32;37.30;101186.34;6057520;28;20473;-67
2023/07/18 12:45:33;;;;;;;3.23;0.70;;;;;;;25.10;38.72;101176.22;6053111;28;20086;-67
2023/07/18 12:48:29;;;;;;;4.15;0.90;;;;;;;24.97;38.99;101184.53;6064499;28;20050;-67
2023/07/18 12:51:24;;;;;;;2.03;0.73;;;;;;;25.21;36.38;101151.84;6080698;28;20527;-67
2023/07/18 12:54:19;;;;;;;4.40;1.42;;;;;;;24.94;36.89;101163.28;6076915;28;20074;-67
2023/07/18 12:57:15;;;;;;;4.10;1.00;;;;;;;24.56;38.04;101134.53;6064140;28;20030;-67
2023/07/18 13:00:10;;;;;;;5.33;1.07;;;;;;;24.45;38.55;101135.28;6057635;28;20030;-67
2023/07/18 13:03:06;;;;;;;2.05;1.00;;;;;;;24.67;38.14;101131.03;6053340;28;20026;-67
2023/07/18 13:06:05;;;;;;;1.70;0.80;;;;;;;24.78;38.42;101137.59;6057576;28;20538;-67
2023/07/18 13:09:01;;;;;;;;;;;;;;;25.37;35.82;101131.31;6053628;28;20037;-67
2023/07/18 13:11:58;;;;;;;2.15;0.90;;;;;;;25.85;35.00;101107.53;6048665;28;19913;-68
2023/07/18 13:14:53;;;;;;;3.55;0.90;;;;;;;25.70;34.82;101096.31;6045262;28;20369;-67
2023/07/18 13:17:49;;;;;;;3.78;0.90;;;;;;;25.14;35.38;101114.97;6053046;28;20036;-67
2023/07/18 13:20:44;;;;;;;1.70;0.87;;;;;;;25.16;36.53;101102.00;6056795;28;20132;-67
2023/07/18 13:23:40;;;;;;;4.03;0.80;;;;;;;25.47;35.58;101095.47;6052320;28;20022;-67
2023/07/18 13:26:36;;;;;;;1.97;0.67;;;;;;;25.80;34.85;101098.44;6052788;28;20033;-67
2023/07/18 13:29:31;;;;;;;3.00;0.88;;;;;;;25.94;35.47;101081.66;6065029;28;20474;-68
2023/07/18 13:32:26;;;;;;;2.17;0.80;;;;;;;25.94;34.36;101078.94;6052705;28;20034;-67
2023/07/18 13:35:22;;;;;;;1.87;0.70;;;;;;;26.48;33.91;101076.84;6063848;28;20021;-67